sensor_id;sensor_type;location;lat;lon;timestamp;pressure;altitude;pressure_sealevel;temperature;humidity
7930;BME280;4010;42.698;23.124;2023-05-16T00:01:55;62689.56;;;-140.64;100.00
7930;BME280;4010;42.698;23.124;2023-05-16T00:04:24;68397.19;;;-140.64;100.00
7930;BME280;4010;42.698;23.124;2023-05-16T00:06:50;67877.94;;;-140.64;100.00
7930;BME280;4010;42.698;23.124;2023-05-16T00:09:17;65282.75;;;-140.64;100.00
7930;BME280;4010;42.698;23.124;2023-05-16T00:11:44;64504.59;;;-140.64;100.00
7930;BME280;4010;42.698;23.124;2023-05-16T00:14:12;68397.19;;;-140.64;100.00
7930;BME280;4010;42.698;23.124;2023-05-16T00:16:39;68137.56;;;-140.64;100.00
7930;BME280;4010;42.698;23.124;2023-05-16T00:19:06;66580.09;;;-140.64;100.00
7930;BME280;4010;42.698;23.124;2023-05-16T00:21:34;64245.25;;;-140.64;100.00
7930;BME280;4010;42.698;23.124;2023-05-16T00:24:01;64763.97;;;-140.64;100.00
7930;BME280;4010;42.698;23.124;2023-05-16T00:26:28;63985.91;;;-140.64;100.00
7930;BME280;4010;42.698;23.124;2023-05-16T00:28:55;62430.38;;;-140.64;100.00
7930;BME280;4010;42.698;23.124;2023-05-16T00:31:22;62689.56;;;-140.64;100.00
7930;BME280;4010;42.698;23.124;2023-05-16T00:33:48;61912.00;;;-140.64;100.00
7930;BME280;4010;42.698;23.124;2023-05-16T00:36:15;61393.72;;;-140.64;100.00
7930;BME280;4010;42.698;23.124;2023-05-16T00:38:43;60875.53;;;-140.64;100.00
7930;BME280;4010;42.698;23.124;2023-05-16T00:41:10;62689.56;;;-140.64;100.00
7930;BME280;4010;42.698;23.124;2023-05-16T00:43:37;63467.31;;;-140.64;100.00
7930;BME280;4010;42.698;23.124;2023-05-16T00:46:04;62430.38;;;-140.64;100.00
7930;BME280;4010;42.698;23.124;2023-05-16T00:48:31;61652.84;;;-140.64;100.00
7930;BME280;4010;42.698;23.124;2023-05-16T00:50:58;61912.00;;;-140.64;100.00
7930;BME280;4010;42.698;23.124;2023-05-16T00:53:25;66061.09;;;-140.64;100.00
7930;BME280;4010;42.698;23.124;2023-05-16T00:55:54;69176.25;;;-140.64;100.00
7930;BME280;4010;42.698;23.124;2023-05-16T00:58:22;66580.09;;;-140.64;100.00
7930;BME280;4010;42.698;23.124;2023-05-16T01:00:50;65801.63;;;-140.64;100.00
7930;BME280;4010;42.698;23.124;2023-05-16T01:03:17;66839.63;;;-140.64;100.00
7930;BME280;4010;42.698;23.124;2023-05-16T01:05:43;66839.63;;;-140.64;100.00
7930;BME280;4010;42.698;23.124;2023-05-16T01:08:11;66320.59;;;-140.64;100.00
7930;BME280;4010;42.698;23.124;2023-05-16T01:10:44;64504.59;;;-140.64;100.00
7930;BME280;4010;42.698;23.124;2023-05-16T01:13:23;66580.09;;;-140.64;100.00
7930;BME280;4010;42.698;23.124;2023-05-16T01:15:57;63985.91;;;-140.64;100.00
7930;BME280;4010;42.698;23.124;2023-05-16T01:18:31;63726.63;;;-140.64;100.00
7930;BME280;4010;42.698;23.124;2023-05-16T01:21:03;63208.06;;;-140.64;100.00
7930;BME280;4010;42.698;23.124;2023-05-16T01:23:39;62430.38;;;-140.64;100.00
7930;BME280;4010;42.698;23.124;2023-05-16T01:26:14;61652.84;;;-140.64;100.00
7930;BME280;4010;42.698;23.124;2023-05-16T01:28:43;60357.41;;;-140.64;100.00
7930;BME280;4010;42.698;23.124;2023-05-16T01:31:11;62171.19;;;-140.64;100.00
7930;BME280;4010;42.698;23.124;2023-05-16T01:33:38;62948.81;;;-140.64;100.00
7930;BME280;4010;42.698;23.124;2023-05-16T01:36:10;63467.31;;;-140.64;100.00
7930;BME280;4010;42.698;23.124;2023-05-16T01:38:41;63985.91;;;-140.64;100.00
7930;BME280;4010;42.698;23.124;2023-05-16T01:41:17;62948.81;;;-140.64;100.00
7930;BME280;4010;42.698;23.124;2023-05-16T01:43:48;63726.63;;;-140.64;100.00
7930;BME280;4010;42.698;23.124;2023-05-16T01:46:20;74894.72;;;-140.64;100.00
7930;BME280;4010;42.698;23.124;2023-05-16T01:48:51;91846.03;;;-140.64;100.00
7930;BME280;4010;42.698;23.124;2023-05-16T01:51:21;84794.59;;;-140.64;100.00
7930;BME280;4010;42.698;23.124;2023-05-16T01:53:48;76195.72;;;-140.64;100.00
7930;BME280;4010;42.698;23.124;2023-05-16T01:56:17;75415.06;;;-140.64;100.00
7930;BME280;4010;42.698;23.124;2023-05-16T01:58:47;72814.16;;;-140.64;100.00
7930;BME280;4010;42.698;23.124;2023-05-16T02:01:15;71514.47;;;-140.64;100.00
7930;BME280;4010;42.698;23.124;2023-05-16T02:03:42;67877.94;;;-140.64;100.00
7930;BME280;4010;42.698;23.124;2023-05-16T02:06:08;64245.25;;;-140.64;100.00
7930;BME280;4010;42.698;23.124;2023-05-16T02:08:35;65023.34;;;-140.64;100.00
7930;BME280;4010;42.698;23.124;2023-05-16T02:11:02;61393.72;;;-140.64;100.00
7930;BME280;4010;42.698;23.124;2023-05-16T02:13:30;62689.56;;;-140.64;100.00
7930;BME280;4010;42.698;23.124;2023-05-16T02:15:56;62689.56;;;-140.64;100.00
7930;BME280;4010;42.698;23.124;2023-05-16T02:18:23;61652.84;;;-140.64;100.00
7930;BME280;4010;42.698;23.124;2023-05-16T02:20:51;60616.44;;;-140.64;100.00
7930;BME280;4010;42.698;23.124;2023-05-16T02:23:17;65282.75;;;-140.64;100.00
7930;BME280;4010;42.698;23.124;2023-05-16T02:25:44;65282.75;;;-140.64;100.00
7930;BME280;4010;42.698;23.124;2023-05-16T02:28:11;69176.25;;;-140.64;100.00
7930;BME280;4010;42.698;23.124;2023-05-16T02:30:39;67618.31;;;-140.64;100.00
7930;BME280;4010;42.698;23.124;2023-05-16T02:33:06;65801.63;;;-140.64;100.00
7930;BME280;4010;42.698;23.124;2023-05-16T02:35:32;65023.34;;;-140.64;100.00
7930;BME280;4010;42.698;23.124;2023-05-16T02:37:59;64245.25;;;-140.64;100.00
7930;BME280;4010;42.698;23.124;2023-05-16T02:40:26;62689.56;;;-140.64;100.00
7930;BME280;4010;42.698;23.124;2023-05-16T02:42:53;61393.72;;;-140.64;100.00
7930;BME280;4010;42.698;23.124;2023-05-16T02:45:19;60875.53;;;-140.64;100.00
7930;BME280;4010;42.698;23.124;2023-05-16T02:47:47;60616.44;;;-140.64;100.00
7930;BME280;4010;42.698;23.124;2023-05-16T02:50:14;59839.34;;;-140.64;100.00
7930;BME280;4010;42.698;23.124;2023-05-16T02:52:41;58803.50;;;-140.64;100.00
7930;BME280;4010;42.698;23.124;2023-05-16T02:55:08;56732.72;;;-140.64;100.00
7930;BME280;4010;42.698;23.124;2023-05-16T02:57:36;56732.72;;;-140.64;100.00
7930;BME280;4010;42.698;23.124;2023-05-16T03:00:04;55697.81;;;-140.64;100.00
7930;BME280;4010;42.698;23.124;2023-05-16T03:02:31;54146.06;;;-140.64;100.00
7930;BME280;4010;42.698;23.124;2023-05-16T03:04:59;56215.25;;;-140.64;100.00
7930;BME280;4010;42.698;23.124;2023-05-16T03:07:26;57250.31;;;-140.64;100.00
7930;BME280;4010;42.698;23.124;2023-05-16T03:09:52;56215.25;;;-140.64;100.00
7930;BME280;4010;42.698;23.124;2023-05-16T03:12:19;59062.44;;;-140.64;100.00
7930;BME280;4010;42.698;23.124;2023-05-16T03:14:46;59062.44;;;-140.64;100.00
7930;BME280;4010;42.698;23.124;2023-05-16T03:17:12;57767.97;;;-140.64;100.00
7930;BME280;4010;42.698;23.124;2023-05-16T03:19:39;55439.16;;;-140.64;100.00
7930;BME280;4010;42.698;23.124;2023-05-16T03:22:07;53887.50;;;-140.64;100.00
7930;BME280;4010;42.698;23.124;2023-05-16T03:24:33;53370.44;;;-140.64;100.00
7930;BME280;4010;42.698;23.124;2023-05-16T03:27:00;53887.50;;;-140.64;100.00
7930;BME280;4010;42.698;23.124;2023-05-16T03:29:28;53370.44;;;-140.64;100.00
7930;BME280;4010;42.698;23.124;2023-05-16T03:31:55;54663.25;;;-140.64;100.00
7930;BME280;4010;42.698;23.124;2023-05-16T03:34:21;53111.94;;;-140.64;100.00
7930;BME280;4010;42.698;23.124;2023-05-16T03:36:49;53111.94;;;-140.64;100.00
7930;BME280;4010;42.698;23.124;2023-05-16T03:39:17;52336.56;;;-140.64;100.00
7930;BME280;4010;42.698;23.124;2023-05-16T03:41:44;52078.13;;;-140.64;100.00
7930;BME280;4010;42.698;23.124;2023-05-16T03:44:10;54404.63;;;-140.64;100.00
7930;BME280;4010;42.698;23.124;2023-05-16T03:46:37;53370.44;;;-140.64;100.00
7930;BME280;4010;42.698;23.124;2023-05-16T03:49:04;54146.06;;;-140.64;100.00
7930;BME280;4010;42.698;23.124;2023-05-16T03:51:30;55180.50;;;-140.64;100.00
7930;BME280;4010;42.698;23.124;2023-05-16T03:53:57;53111.94;;;-140.64;100.00
7930;BME280;4010;42.698;23.124;2023-05-16T03:56:25;52595.00;;;-140.64;100.00
7930;BME280;4010;42.698;23.124;2023-05-16T03:58:53;53111.94;;;-140.64;100.00
7930;BME280;4010;42.698;23.124;2023-05-16T04:01:20;52336.56;;;-140.64;100.00
7930;BME280;4010;42.698;23.124;2023-05-16T04:03:46;52595.00;;;-140.64;100.00
7930;BME280;4010;42.698;23.124;2023-05-16T04:06:15;52336.56;;;-140.64;100.00
7930;BME280;4010;42.698;23.124;2023-05-16T04:08:41;75154.88;;;-140.64;100.00
7930;BME280;4010;42.698;23.124;2023-05-16T04:11:20;77236.84;;;-140.64;100.00
7930;BME280;4010;42.698;23.124;2023-05-16T04:13:55;63985.91;;;-140.64;100.00
7930;BME280;4010;42.698;23.124;2023-05-16T04:16:22;60616.44;;;-140.64;100.00
7930;BME280;4010;42.698;23.124;2023-05-16T04:18:48;58803.50;;;-140.64;100.00
7930;BME280;4010;42.698;23.124;2023-05-16T04:21:16;56732.72;;;-140.64;100.00
7930;BME280;4010;42.698;23.124;2023-05-16T04:23:42;54404.63;;;-140.64;100.00
7930;BME280;4010;42.698;23.124;2023-05-16T04:26:09;52595.00;;;-140.64;100.00
7930;BME280;4010;42.698;23.124;2023-05-16T04:28:37;53370.44;;;-140.64;100.00
7930;BME280;4010;42.698;23.124;2023-05-16T04:31:05;56473.97;;;-140.64;100.00
7930;BME280;4010;42.698;23.124;2023-05-16T04:33:32;57250.31;;;-140.64;100.00
7930;BME280;4010;42.698;23.124;2023-05-16T04:35:59;55956.53;;;-140.64;100.00
7930;BME280;4010;42.698;23.124;2023-05-16T04:38:25;59580.34;;;-140.64;100.00
7930;BME280;4010;42.698;23.124;2023-05-16T04:40:52;56732.72;;;-140.64;100.00
7930;BME280;4010;42.698;23.124;2023-05-16T04:43:19;55697.81;;;-140.64;100.00
7930;BME280;4010;42.698;23.124;2023-05-16T04:45:46;53887.50;;;-140.64;100.00
7930;BME280;4010;42.698;23.124;2023-05-16T04:48:15;56473.97;;;-140.64;100.00
7930;BME280;4010;42.698;23.124;2023-05-16T04:50:41;56215.25;;;-140.64;100.00
7930;BME280;4010;42.698;23.124;2023-05-16T04:53:08;54663.25;;;-140.64;100.00
7930;BME280;4010;42.698;23.124;2023-05-16T04:55:35;57250.31;;;-140.64;100.00
7930;BME280;4010;42.698;23.124;2023-05-16T04:58:02;59580.34;;;-140.64;100.00
7930;BME280;4010;42.698;23.124;2023-05-16T05:00:28;60098.38;;;-140.64;100.00
7930;BME280;4010;42.698;23.124;2023-05-16T05:02:55;60875.53;;;-140.64;100.00
7930;BME280;4010;42.698;23.124;2023-05-16T05:05:23;59321.38;;;-140.64;100.00
7930;BME280;4010;42.698;23.124;2023-05-16T05:07:50;58285.69;;;-140.64;100.00
7930;BME280;4010;42.698;23.124;2023-05-16T05:10:17;58026.81;;;-140.64;100.00
7930;BME280;4010;42.698;23.124;2023-05-16T05:12:44;61912.00;;;-140.64;100.00
7930;BME280;4010;42.698;23.124;2023-05-16T05:15:11;69435.97;;;-140.64;100.00
7930;BME280;4010;42.698;23.124;2023-05-16T05:17:38;71774.38;;;-140.64;100.00
7930;BME280;4010;42.698;23.124;2023-05-16T05:20:06;68916.53;;;-140.64;100.00
7930;BME280;4010;42.698;23.124;2023-05-16T05:22:36;65542.19;;;-140.64;100.00
7930;BME280;4010;42.698;23.124;2023-05-16T05:25:03;72294.22;;;-140.64;100.00
7930;BME280;4010;42.698;23.124;2023-05-16T05:27:29;97340.44;;;-140.64;100.00
7930;BME280;4010;42.698;23.124;2023-05-16T05:29:56;87665.66;;;-140.64;100.00
7930;BME280;4010;42.698;23.124;2023-05-16T05:32:23;81925.91;;;-140.64;100.00
7930;BME280;4010;42.698;23.124;2023-05-16T05:34:49;77757.53;;;-140.64;100.00
7930;BME280;4010;42.698;23.124;2023-05-16T05:37:17;75675.25;;;-140.64;100.00
7930;BME280;4010;42.698;23.124;2023-05-16T05:39:45;78278.31;;;-140.64;100.00
7930;BME280;4010;42.698;23.124;2023-05-16T05:42:11;73594.22;;;-140.64;100.00
7930;BME280;4010;42.698;23.124;2023-05-16T05:44:38;71514.47;;;-140.64;100.00
7930;BME280;4010;42.698;23.124;2023-05-16T05:47:05;71774.38;;;-140.64;100.00
7930;BME280;4010;42.698;23.124;2023-05-16T05:49:32;71254.59;;;-140.64;100.00
7930;BME280;4010;42.698;23.124;2023-05-16T05:52:00;71514.47;;;-140.64;100.00
7930;BME280;4010;42.698;23.124;2023-05-16T05:54:27;79580.59;;;-140.64;100.00
7930;BME280;4010;42.698;23.124;2023-05-16T05:56:55;83751.16;;;-140.64;100.00
7930;BME280;4010;42.698;23.124;2023-05-16T05:59:22;81925.91;;;-140.64;100.00
7930;BME280;4010;42.698;23.124;2023-05-16T06:01:49;84011.97;;;-140.64;100.00
7930;BME280;4010;42.698;23.124;2023-05-16T06:04:17;86099.31;;;-140.64;100.00
7930;BME280;4010;42.698;23.124;2023-05-16T06:06:43;97864.16;;;-140.64;100.00
7930;BME280;4010;42.698;23.124;2023-05-16T06:09:11;113612.78;;;-140.64;100.00
7930;BME280;4010;42.698;23.124;2023-05-16T06:11:38;118349.16;;;-140.64;100.00
7930;BME280;4010;42.698;23.124;2023-05-16T06:14:06;118349.16;;;-140.64;100.00
7930;BME280;4010;42.698;23.124;2023-05-16T06:16:33;118349.16;;;-140.64;100.00
7930;BME280;4010;42.698;23.124;2023-05-16T06:18:59;118349.16;;;-140.64;100.00
7930;BME280;4010;42.698;23.124;2023-05-16T06:21:26;118349.16;;;-140.64;100.00
7930;BME280;4010;42.698;23.124;2023-05-16T06:23:53;118349.16;;;-140.64;100.00
7930;BME280;4010;42.698;23.124;2023-05-16T06:26:19;118349.16;;;-140.64;100.00
7930;BME280;4010;42.698;23.124;2023-05-16T06:28:47;118349.16;;;-140.64;100.00
7930;BME280;4010;42.698;23.124;2023-05-16T06:31:15;118349.16;;;-140.64;100.00
7930;BME280;4010;42.698;23.124;2023-05-16T06:33:41;118349.16;;;-140.64;100.00
7930;BME280;4010;42.698;23.124;2023-05-16T06:36:08;118349.16;;;-140.64;100.00
7930;BME280;4010;42.698;23.124;2023-05-16T06:38:35;118349.16;;;-140.64;100.00
7930;BME280;4010;42.698;23.124;2023-05-16T06:41:01;118349.16;;;-140.64;100.00
7930;BME280;4010;42.698;23.124;2023-05-16T06:43:28;118349.16;;;-140.64;100.00
7930;BME280;4010;42.698;23.124;2023-05-16T06:45:55;118349.16;;;-140.64;100.00
7930;BME280;4010;42.698;23.124;2023-05-16T06:48:23;118349.16;;;-140.64;100.00
7930;BME280;4010;42.698;23.124;2023-05-16T06:50:50;118349.16;;;-140.64;100.00
7930;BME280;4010;42.698;23.124;2023-05-16T06:53:16;118349.16;;;-140.64;100.00
7930;BME280;4010;42.698;23.124;2023-05-16T06:55:43;118349.16;;;-140.64;100.00
7930;BME280;4010;42.698;23.124;2023-05-16T06:58:10;118349.16;;;-140.64;100.00
7930;BME280;4010;42.698;23.124;2023-05-16T07:00:37;118349.16;;;-140.64;100.00
7930;BME280;4010;42.698;23.124;2023-05-16T07:03:03;118349.16;;;-140.64;100.00
7930;BME280;4010;42.698;23.124;2023-05-16T07:05:32;118349.16;;;-140.64;100.00
7930;BME280;4010;42.698;23.124;2023-05-16T07:07:58;118349.16;;;-140.64;100.00
7930;BME280;4010;42.698;23.124;2023-05-16T07:10:25;118349.16;;;-140.64;100.00
7930;BME280;4010;42.698;23.124;2023-05-16T07:12:52;118349.16;;;-140.64;100.00
7930;BME280;4010;42.698;23.124;2023-05-16T07:15:19;118349.16;;;-140.64;100.00
7930;BME280;4010;42.698;23.124;2023-05-16T07:17:46;118349.16;;;-140.64;100.00
7930;BME280;4010;42.698;23.124;2023-05-16T07:20:13;118349.16;;;-140.64;100.00
7930;BME280;4010;42.698;23.124;2023-05-16T07:22:41;118349.16;;;-140.64;100.00
7930;BME280;4010;42.698;23.124;2023-05-16T07:25:08;118349.16;;;-140.64;100.00
7930;BME280;4010;42.698;23.124;2023-05-16T07:27:37;118349.16;;;-140.64;100.00
7930;BME280;4010;42.698;23.124;2023-05-16T07:30:06;118349.16;;;-140.64;100.00
7930;BME280;4010;42.698;23.124;2023-05-16T07:32:33;118349.16;;;-140.64;100.00
7930;BME280;4010;42.698;23.124;2023-05-16T07:35:00;118349.16;;;-140.64;100.00
7930;BME280;4010;42.698;23.124;2023-05-16T07:37:26;118349.16;;;-140.64;100.00
7930;BME280;4010;42.698;23.124;2023-05-16T07:39:54;118349.16;;;-140.64;100.00
7930;BME280;4010;42.698;23.124;2023-05-16T07:42:21;118349.16;;;-140.64;100.00
7930;BME280;4010;42.698;23.124;2023-05-16T07:44:48;118349.16;;;-140.64;100.00
7930;BME280;4010;42.698;23.124;2023-05-16T07:47:15;118349.16;;;-140.64;100.00
7930;BME280;4010;42.698;23.124;2023-05-16T07:49:41;118349.16;;;-140.64;100.00
7930;BME280;4010;42.698;23.124;2023-05-16T07:52:08;118349.16;;;-140.64;100.00
7930;BME280;4010;42.698;23.124;2023-05-16T07:54:35;118349.16;;;-140.64;100.00
7930;BME280;4010;42.698;23.124;2023-05-16T07:57:03;118349.16;;;-140.64;100.00
7930;BME280;4010;42.698;23.124;2023-05-16T07:59:30;118349.16;;;-140.64;100.00
7930;BME280;4010;42.698;23.124;2023-05-16T08:01:57;118349.16;;;-140.64;100.00
7930;BME280;4010;42.698;23.124;2023-05-16T08:04:23;118349.16;;;-140.64;100.00
7930;BME280;4010;42.698;23.124;2023-05-16T08:06:50;118349.16;;;-140.64;100.00
7930;BME280;4010;42.698;23.124;2023-05-16T08:09:17;118349.16;;;-140.64;100.00
7930;BME280;4010;42.698;23.124;2023-05-16T08:11:44;118349.16;;;-140.64;100.00
7930;BME280;4010;42.698;23.124;2023-05-16T08:14:12;118349.16;;;-140.64;100.00
7930;BME280;4010;42.698;23.124;2023-05-16T08:16:39;118349.16;;;-140.64;99.91
7930;BME280;4010;42.698;23.124;2023-05-16T08:19:06;118349.16;;;-140.64;97.39
7930;BME280;4010;42.698;23.124;2023-05-16T08:21:32;118349.16;;;-140.64;94.82
7930;BME280;4010;42.698;23.124;2023-05-16T08:23:59;118349.16;;;-140.64;95.98
7930;BME280;4010;42.698;23.124;2023-05-16T08:26:26;118349.16;;;-140.64;92.72
7930;BME280;4010;42.698;23.124;2023-05-16T08:28:52;118349.16;;;-140.64;91.78
7930;BME280;4010;42.698;23.124;2023-05-16T08:31:20;118349.16;;;-140.64;87.94
7930;BME280;4010;42.698;23.124;2023-05-16T08:33:47;118349.16;;;-140.64;90.15
7930;BME280;4010;42.698;23.124;2023-05-16T08:36:14;118349.16;;;-140.64;85.58
7930;BME280;4010;42.698;23.124;2023-05-16T08:38:43;118349.16;;;-140.64;83.08
7930;BME280;4010;42.698;23.124;2023-05-16T08:41:10;118349.16;;;-140.64;78.87
7930;BME280;4010;42.698;23.124;2023-05-16T08:43:37;118349.16;;;-140.64;78.54
7930;BME280;4010;42.698;23.124;2023-05-16T08:46:05;118349.16;;;-140.64;79.69
7930;BME280;4010;42.698;23.124;2023-05-16T08:48:35;118349.16;;;-140.64;81.46
7930;BME280;4010;42.698;23.124;2023-05-16T08:51:05;118349.16;;;-140.64;81.79
7930;BME280;4010;42.698;23.124;2023-05-16T08:53:38;118349.16;;;-140.64;77.46
7930;BME280;4010;42.698;23.124;2023-05-16T08:56:06;118349.16;;;-140.64;74.13
7930;BME280;4010;42.698;23.124;2023-05-16T08:58:34;118349.16;;;-140.64;71.01
7930;BME280;4010;42.698;23.124;2023-05-16T09:01:01;118349.16;;;-140.64;70.35
7930;BME280;4010;42.698;23.124;2023-05-16T09:03:34;118349.16;;;-140.64;71.04
7930;BME280;4010;42.698;23.124;2023-05-16T09:06:03;118349.16;;;-140.64;71.89
7930;BME280;4010;42.698;23.124;2023-05-16T09:08:30;118349.16;;;-140.64;72.32
7930;BME280;4010;42.698;23.124;2023-05-16T09:10:57;118349.16;;;-140.64;73.81
7930;BME280;4010;42.698;23.124;2023-05-16T09:13:24;118349.16;;;-140.64;73.35
7930;BME280;4010;42.698;23.124;2023-05-16T09:16:12;118349.16;;;-140.64;74.16
7930;BME280;4010;42.698;23.124;2023-05-16T09:18:42;118349.16;;;-140.64;75.98
7930;BME280;4010;42.698;23.124;2023-05-16T09:21:10;118349.16;;;-140.64;77.97
7930;BME280;4010;42.698;23.124;2023-05-16T09:23:37;118349.16;;;-140.64;76.79
7930;BME280;4010;42.698;23.124;2023-05-16T09:26:04;118349.16;;;-140.64;77.76
7930;BME280;4010;42.698;23.124;2023-05-16T09:28:32;118349.16;;;-140.64;78.35
7930;BME280;4010;42.698;23.124;2023-05-16T09:30:59;118349.16;;;-140.64;78.53
7930;BME280;4010;42.698;23.124;2023-05-16T09:33:27;118349.16;;;-140.64;76.92
7930;BME280;4010;42.698;23.124;2023-05-16T09:35:56;118349.16;;;-140.64;77.46
7930;BME280;4010;42.698;23.124;2023-05-16T09:38:24;118349.16;;;-140.64;79.65
7930;BME280;4010;42.698;23.124;2023-05-16T09:40:51;118349.16;;;-140.64;76.14
7930;BME280;4010;42.698;23.124;2023-05-16T09:43:21;118349.16;;;-140.64;76.85
7930;BME280;4010;42.698;23.124;2023-05-16T09:45:48;118349.16;;;-140.64;73.77
7930;BME280;4010;42.698;23.124;2023-05-16T09:48:16;118349.16;;;-140.64;72.69
7930;BME280;4010;42.698;23.124;2023-05-16T09:50:46;118349.16;;;-140.64;71.96
7930;BME280;4010;42.698;23.124;2023-05-16T09:53:17;118349.16;;;-140.64;69.21
7930;BME280;4010;42.698;23.124;2023-05-16T09:55:43;118349.16;;;-140.64;68.76
7930;BME280;4010;42.698;23.124;2023-05-16T09:58:10;118349.16;;;-140.64;74.00
7930;BME280;4010;42.698;23.124;2023-05-16T10:00:37;118349.16;;;-140.64;66.87
7930;BME280;4010;42.698;23.124;2023-05-16T10:03:05;118349.16;;;-140.64;66.44
7930;BME280;4010;42.698;23.124;2023-05-16T10:05:33;118349.16;;;-140.64;66.02
7930;BME280;4010;42.698;23.124;2023-05-16T10:08:02;118349.16;;;-140.64;64.17
7930;BME280;4010;42.698;23.124;2023-05-16T10:10:33;118349.16;;;-140.64;65.16
7930;BME280;4010;42.698;23.124;2023-05-16T10:13:04;118349.16;;;-140.64;69.06
7930;BME280;4010;42.698;23.124;2023-05-16T10:15:31;118349.16;;;-140.64;64.24
7930;BME280;4010;42.698;23.124;2023-05-16T10:17:58;118349.16;;;-140.64;70.06
7930;BME280;4010;42.698;23.124;2023-05-16T10:20:26;118349.16;;;-140.64;68.31
7930;BME280;4010;42.698;23.124;2023-05-16T10:22:54;118349.16;;;-140.64;71.83
7930;BME280;4010;42.698;23.124;2023-05-16T10:25:25;118349.16;;;-140.64;74.30
7930;BME280;4010;42.698;23.124;2023-05-16T10:27:55;118349.16;;;-140.64;74.88
7930;BME280;4010;42.698;23.124;2023-05-16T10:30:23;118349.16;;;-140.64;76.56
7930;BME280;4010;42.698;23.124;2023-05-16T10:32:52;118349.16;;;-140.64;78.59
7930;BME280;4010;42.698;23.124;2023-05-16T10:35:19;118349.16;;;-140.64;78.98
7930;BME280;4010;42.698;23.124;2023-05-16T10:37:47;118349.16;;;-140.64;79.41
7930;BME280;4010;42.698;23.124;2023-05-16T10:40:15;118349.16;;;-140.64;81.62
7930;BME280;4010;42.698;23.124;2023-05-16T10:42:46;118349.16;;;-140.64;78.78
7930;BME280;4010;42.698;23.124;2023-05-16T10:45:22;118349.16;;;-140.64;81.74
7930;BME280;4010;42.698;23.124;2023-05-16T10:47:53;118349.16;;;-140.64;77.42
7930;BME280;4010;42.698;23.124;2023-05-16T10:50:36;118349.16;;;-140.64;78.34
7930;BME280;4010;42.698;23.124;2023-05-16T10:53:18;118349.16;;;-140.64;77.21
7930;BME280;4010;42.698;23.124;2023-05-16T10:55:49;118349.16;;;-140.64;77.42
7930;BME280;4010;42.698;23.124;2023-05-16T10:58:23;118349.16;;;-140.64;80.11
7930;BME280;4010;42.698;23.124;2023-05-16T11:01:19;118349.16;;;-140.64;77.19
7930;BME280;4010;42.698;23.124;2023-05-16T11:04:16;118349.16;;;-140.64;77.99
7930;BME280;4010;42.698;23.124;2023-05-16T11:06:49;118349.16;;;-140.64;78.95
7930;BME280;4010;42.698;23.124;2023-05-16T11:09:21;118349.16;;;-140.64;79.79
7930;BME280;4010;42.698;23.124;2023-05-16T11:11:55;118349.16;;;-140.64;82.69
7930;BME280;4010;42.698;23.124;2023-05-16T11:14:23;118349.16;;;-140.64;83.53
7930;BME280;4010;42.698;23.124;2023-05-16T11:16:53;118349.16;;;-140.64;80.78
7930;BME280;4010;42.698;23.124;2023-05-16T11:19:30;118349.16;;;-140.64;81.99
7930;BME280;4010;42.698;23.124;2023-05-16T11:22:21;118349.16;;;-140.64;86.40
7930;BME280;4010;42.698;23.124;2023-05-16T11:24:50;118349.16;;;-140.64;90.46
7930;BME280;4010;42.698;23.124;2023-05-16T11:27:22;118349.16;;;-140.64;88.98
7930;BME280;4010;42.698;23.124;2023-05-16T11:29:50;118349.16;;;-140.64;83.95
7930;BME280;4010;42.698;23.124;2023-05-16T11:32:20;118349.16;;;-140.64;83.43
7930;BME280;4010;42.698;23.124;2023-05-16T11:34:47;118349.16;;;-140.64;81.58
7930;BME280;4010;42.698;23.124;2023-05-16T11:37:14;118349.16;;;-140.64;83.22
7930;BME280;4010;42.698;23.124;2023-05-16T11:39:41;118349.16;;;-140.64;82.75
7930;BME280;4010;42.698;23.124;2023-05-16T11:42:08;118349.16;;;-140.64;83.04
7930;BME280;4010;42.698;23.124;2023-05-16T11:44:35;118349.16;;;-140.64;82.55
7930;BME280;4010;42.698;23.124;2023-05-16T11:47:01;118349.16;;;-140.64;86.73
7930;BME280;4010;42.698;23.124;2023-05-16T11:49:30;118349.16;;;-140.64;88.12
7930;BME280;4010;42.698;23.124;2023-05-16T11:51:57;118349.16;;;-140.64;86.88
7930;BME280;4010;42.698;23.124;2023-05-16T11:54:24;118349.16;;;-140.64;85.17
7930;BME280;4010;42.698;23.124;2023-05-16T11:56:51;118349.16;;;-140.64;87.81
7930;BME280;4010;42.698;23.124;2023-05-16T11:59:18;118349.16;;;-140.64;88.28
7930;BME280;4010;42.698;23.124;2023-05-16T12:01:46;118349.16;;;-140.64;89.63
7930;BME280;4010;42.698;23.124;2023-05-16T12:04:14;118349.16;;;-140.64;90.98
7930;BME280;4010;42.698;23.124;2023-05-16T12:06:42;118349.16;;;-140.64;88.13
7930;BME280;4010;42.698;23.124;2023-05-16T12:09:11;118349.16;;;-140.64;84.32
7930;BME280;4010;42.698;23.124;2023-05-16T12:11:40;118349.16;;;-140.64;85.00
7930;BME280;4010;42.698;23.124;2023-05-16T12:14:08;118349.16;;;-140.64;82.80
7930;BME280;4010;42.698;23.124;2023-05-16T12:16:36;118349.16;;;-140.64;82.61
7930;BME280;4010;42.698;23.124;2023-05-16T12:19:04;118349.16;;;-140.64;81.99
7930;BME280;4010;42.698;23.124;2023-05-16T12:21:31;118349.16;;;-140.64;83.30
7930;BME280;4010;42.698;23.124;2023-05-16T12:24:00;118349.16;;;-140.64;84.42
7930;BME280;4010;42.698;23.124;2023-05-16T12:26:28;118349.16;;;-140.64;87.29
7930;BME280;4010;42.698;23.124;2023-05-16T12:28:56;118349.16;;;-140.64;86.36
7930;BME280;4010;42.698;23.124;2023-05-16T12:31:25;118349.16;;;-140.64;85.99
7930;BME280;4010;42.698;23.124;2023-05-16T12:33:52;118349.16;;;-140.64;87.23
7930;BME280;4010;42.698;23.124;2023-05-16T12:36:19;118349.16;;;-140.64;88.47
7930;BME280;4010;42.698;23.124;2023-05-16T12:38:46;118349.16;;;-140.64;87.38
7930;BME280;4010;42.698;23.124;2023-05-16T12:41:18;118349.16;;;-140.64;88.82
7930;BME280;4010;42.698;23.124;2023-05-16T12:43:45;118349.16;;;-140.64;88.02